CNW8 weather

Toronto (Hospital For Sick Children) Heliport
Toronto, Ontario, Canada

Public forecast

Using degrees Celsius for public forecast. Weather courtesy of forecast.io.

METAR (pilot weather report)

Closest report is Billy Bishop Toronto City Centre Airport, 1.8 nm (3.3 km) SSW. Retrieved 2019/05/27 13:00 UTC (20 minutes ago):

CYTZ 271300Z AUTO 18004KT 160V230 9SM CLR 16/10 A3004 RMK SLP175 DENSITY ALT 300FT

TAF (pilot weather forecast)

Closest forecast is Billy Bishop Toronto City Centre Airport, 1.8 nm (3.3 km) SSW. Retrieved 2019/05/27 14:47 UTC (0 seconds ago):

TAF CYTZ 271338Z 2714/2814 18005KT P6SM SKC FM271600 18006KT P6SM SCT030 FM272100 04006KT P6SM BKN040 FM280000 05006KT P6SM BKN050 BKN180 FM280200 05006KT P6SM SCT040 BKN140 BECMG 2806/2808 07012G22KT FM280800 07012G22KT P6SM -SHRA FEW015 BKN050 OVC080 FM281000 07012G22KT 3SM SHRA BR BKN009 OVC030 RMK FCST BASED ON AUTO OBS. NXT FCST BY 272000Z